sensor_id;sensor_type;location;lat;lon;timestamp;temperature;humidity
27667;DHT22;15074;50.940;5.282;2022-12-08T00:05:15;4.50;99.90
27667;DHT22;15074;50.940;5.282;2022-12-08T00:08:20;4.50;99.90
27667;DHT22;15074;50.940;5.282;2022-12-08T00:11:11;4.60;99.90
27667;DHT22;15074;50.940;5.282;2022-12-08T00:13:37;4.50;99.90
27667;DHT22;15074;50.940;5.282;2022-12-08T00:16:03;4.50;99.90
27667;DHT22;15074;50.940;5.282;2022-12-08T00:21:47;4.60;99.90
27667;DHT22;15074;50.940;5.282;2022-12-08T00:24:12;4.60;99.90
27667;DHT22;15074;50.940;5.282;2022-12-08T00:26:38;4.60;99.90
27667;DHT22;15074;50.940;5.282;2022-12-08T00:29:41;4.60;99.90
27667;DHT22;15074;50.940;5.282;2022-12-08T00:32:09;4.50;99.90
27667;DHT22;15074;50.940;5.282;2022-12-08T00:34:35;4.50;99.90
27667;DHT22;15074;50.940;5.282;2022-12-08T00:37:01;4.50;99.90
27667;DHT22;15074;50.940;5.282;2022-12-08T00:39:26;4.50;99.90
27667;DHT22;15074;50.940;5.282;2022-12-08T00:41:52;4.50;99.90
27667;DHT22;15074;50.940;5.282;2022-12-08T00:44:37;4.50;99.90
27667;DHT22;15074;50.940;5.282;2022-12-08T00:47:03;4.50;99.90
27667;DHT22;15074;50.940;5.282;2022-12-08T00:49:28;4.50;99.90
27667;DHT22;15074;50.940;5.282;2022-12-08T00:51:54;4.50;99.90
27667;DHT22;15074;50.940;5.282;2022-12-08T00:54:20;4.50;99.90
27667;DHT22;15074;50.940;5.282;2022-12-08T00:56:47;4.50;99.90
27667;DHT22;15074;50.940;5.282;2022-12-08T00:59:13;4.50;99.90
27667;DHT22;15074;50.940;5.282;2022-12-08T01:01:39;4.50;99.90
27667;DHT22;15074;50.940;5.282;2022-12-08T01:04:11;4.40;99.90
27667;DHT22;15074;50.940;5.282;2022-12-08T01:06:38;4.40;99.90
27667;DHT22;15074;50.940;5.282;2022-12-08T01:09:05;4.40;99.90
27667;DHT22;15074;50.940;5.282;2022-12-08T01:11:31;4.40;99.90
27667;DHT22;15074;50.940;5.282;2022-12-08T01:14:29;4.40;99.90
27667;DHT22;15074;50.940;5.282;2022-12-08T01:16:56;4.40;99.90
27667;DHT22;15074;50.940;5.282;2022-12-08T01:19:21;4.40;99.90
27667;DHT22;15074;50.940;5.282;2022-12-08T01:21:47;4.40;99.90
27667;DHT22;15074;50.940;5.282;2022-12-08T03:32:32;3.90;99.90
27667;DHT22;15074;50.940;5.282;2022-12-08T03:35:02;4.00;99.90
27667;DHT22;15074;50.940;5.282;2022-12-08T03:37:28;3.90;99.90
27667;DHT22;15074;50.940;5.282;2022-12-08T03:39:54;4.00;99.90
27667;DHT22;15074;50.940;5.282;2022-12-08T03:45:40;4.00;99.90
27667;DHT22;15074;50.940;5.282;2022-12-08T03:48:05;4.00;99.90
27667;DHT22;15074;50.940;5.282;2022-12-08T03:50:31;4.00;99.90
27667;DHT22;15074;50.940;5.282;2022-12-08T03:53:31;4.00;99.90
27667;DHT22;15074;50.940;5.282;2022-12-08T03:55:57;4.00;99.90
27667;DHT22;15074;50.940;5.282;2022-12-08T03:58:22;4.00;99.90
27667;DHT22;15074;50.940;5.282;2022-12-08T04:00:48;4.00;99.90
27667;DHT22;15074;50.940;5.282;2022-12-08T04:03:14;4.00;99.90
27667;DHT22;15074;50.940;5.282;2022-12-08T04:06:12;4.00;99.90
27667;DHT22;15074;50.940;5.282;2022-12-08T04:08:38;4.00;99.90
27667;DHT22;15074;50.940;5.282;2022-12-08T04:11:04;4.00;99.90
27667;DHT22;15074;50.940;5.282;2022-12-08T04:13:31;4.00;99.90
27667;DHT22;15074;50.940;5.282;2022-12-08T04:15:57;4.00;99.90
27667;DHT22;15074;50.940;5.282;2022-12-08T04:18:23;4.00;99.90
27667;DHT22;15074;50.940;5.282;2022-12-08T04:23:52;3.90;99.90
27667;DHT22;15074;50.940;5.282;2022-12-08T04:26:17;3.90;99.90
27667;DHT22;15074;50.940;5.282;2022-12-08T04:28:43;3.90;99.90
27667;DHT22;15074;50.940;5.282;2022-12-08T05:32:04;3.40;99.90
27667;DHT22;15074;50.940;5.282;2022-12-08T05:34:30;3.40;99.90
27667;DHT22;15074;50.940;5.282;2022-12-08T05:36:55;3.30;99.90
27667;DHT22;15074;50.940;5.282;2022-12-08T05:39:21;3.30;99.90
27667;DHT22;15074;50.940;5.282;2022-12-08T05:41:47;3.30;99.90
27667;DHT22;15074;50.940;5.282;2022-12-08T05:44:12;3.30;99.90
27667;DHT22;15074;50.940;5.282;2022-12-08T05:46:38;3.30;99.90
27667;DHT22;15074;50.940;5.282;2022-12-08T05:49:03;3.40;99.90
27667;DHT22;15074;50.940;5.282;2022-12-08T05:52:01;3.40;99.90
27667;DHT22;15074;50.940;5.282;2022-12-08T05:54:30;3.50;99.90
27667;DHT22;15074;50.940;5.282;2022-12-08T05:56:55;3.50;99.90
27667;DHT22;15074;50.940;5.282;2022-12-08T05:59:21;3.50;99.90
27667;DHT22;15074;50.940;5.282;2022-12-08T06:05:13;3.50;99.90
27667;DHT22;15074;50.940;5.282;2022-12-08T06:07:38;3.60;99.90
27667;DHT22;15074;50.940;5.282;2022-12-08T06:10:04;3.70;99.90
27667;DHT22;15074;50.940;5.282;2022-12-08T06:12:30;3.70;99.90
27667;DHT22;15074;50.940;5.282;2022-12-08T06:14:56;3.70;99.90
27667;DHT22;15074;50.940;5.282;2022-12-08T06:20:42;3.70;99.90
27667;DHT22;15074;50.940;5.282;2022-12-08T06:23:07;3.70;99.90
27667;DHT22;15074;50.940;5.282;2022-12-08T06:25:33;3.70;99.90
27667;DHT22;15074;50.940;5.282;2022-12-08T06:27:59;3.80;99.90
27667;DHT22;15074;50.940;5.282;2022-12-08T06:30:32;3.80;99.90
27667;DHT22;15074;50.940;5.282;2022-12-08T06:32:57;3.80;99.90
27667;DHT22;15074;50.940;5.282;2022-12-08T06:35:23;3.80;99.90
27667;DHT22;15074;50.940;5.282;2022-12-08T06:37:49;3.90;99.90
27667;DHT22;15074;50.940;5.282;2022-12-08T06:40:26;3.80;99.90
27667;DHT22;15074;50.940;5.282;2022-12-08T06:42:51;3.80;99.90
27667;DHT22;15074;50.940;5.282;2022-12-08T06:45:17;3.80;99.90
27667;DHT22;15074;50.940;5.282;2022-12-08T06:47:43;3.80;99.90
27667;DHT22;15074;50.940;5.282;2022-12-08T06:50:10;3.80;99.90
27667;DHT22;15074;50.940;5.282;2022-12-08T06:52:36;3.80;99.90
27667;DHT22;15074;50.940;5.282;2022-12-08T06:55:02;3.80;99.90
27667;DHT22;15074;50.940;5.282;2022-12-08T07:08:12;3.70;99.90
27667;DHT22;15074;50.940;5.282;2022-12-08T07:10:38;3.70;99.90
27667;DHT22;15074;50.940;5.282;2022-12-08T07:13:03;3.70;99.90
27667;DHT22;15074;50.940;5.282;2022-12-08T07:15:39;3.60;99.90
27667;DHT22;15074;50.940;5.282;2022-12-08T07:21:44;3.50;99.90
27667;DHT22;15074;50.940;5.282;2022-12-08T07:27:36;3.50;99.90
27667;DHT22;15074;50.940;5.282;2022-12-08T07:30:02;3.50;99.90
27667;DHT22;15074;50.940;5.282;2022-12-08T07:32:28;3.50;99.90
27667;DHT22;15074;50.940;5.282;2022-12-08T07:37:59;3.60;99.90
27667;DHT22;15074;50.940;5.282;2022-12-08T07:40:25;3.50;99.90
27667;DHT22;15074;50.940;5.282;2022-12-08T07:42:50;3.50;99.90
27667;DHT22;15074;50.940;5.282;2022-12-08T07:45:46;3.50;99.90
27667;DHT22;15074;50.940;5.282;2022-12-08T07:51:38;3.50;99.90
27667;DHT22;15074;50.940;5.282;2022-12-08T07:54:24;3.50;99.90
27667;DHT22;15074;50.940;5.282;2022-12-08T07:56:50;3.60;99.90
27667;DHT22;15074;50.940;5.282;2022-12-08T08:02:19;3.60;99.90
27667;DHT22;15074;50.940;5.282;2022-12-08T08:04:49;3.60;99.90
27667;DHT22;15074;50.940;5.282;2022-12-08T08:07:14;3.60;99.90
27667;DHT22;15074;50.940;5.282;2022-12-08T08:09:40;3.60;99.90
27667;DHT22;15074;50.940;5.282;2022-12-08T08:19:23;3.70;99.90
27667;DHT22;15074;50.940;5.282;2022-12-08T08:21:49;3.70;99.90
27667;DHT22;15074;50.940;5.282;2022-12-08T08:24:15;3.70;99.90
27667;DHT22;15074;50.940;5.282;2022-12-08T08:26:41;3.80;99.90
27667;DHT22;15074;50.940;5.282;2022-12-08T08:32:48;3.80;99.90
27667;DHT22;15074;50.940;5.282;2022-12-08T08:35:33;3.90;99.90
27667;DHT22;15074;50.940;5.282;2022-12-08T08:38:00;3.80;99.90
27667;DHT22;15074;50.940;5.282;2022-12-08T08:40:26;3.90;99.90
27667;DHT22;15074;50.940;5.282;2022-12-08T08:50:13;3.90;99.90
27667;DHT22;15074;50.940;5.282;2022-12-08T08:52:41;4.00;99.90
27667;DHT22;15074;50.940;5.282;2022-12-08T08:55:07;3.90;99.90
27667;DHT22;15074;50.940;5.282;2022-12-08T08:57:32;4.00;99.90
27667;DHT22;15074;50.940;5.282;2022-12-08T09:00:11;3.90;99.90
27667;DHT22;15074;50.940;5.282;2022-12-08T09:02:37;3.90;99.90
27667;DHT22;15074;50.940;5.282;2022-12-08T09:05:04;3.90;99.90
27667;DHT22;15074;50.940;5.282;2022-12-08T09:07:30;4.10;99.90
27667;DHT22;15074;50.940;5.282;2022-12-08T09:09:56;4.10;99.90
27667;DHT22;15074;50.940;5.282;2022-12-08T09:12:22;4.10;99.90
27667;DHT22;15074;50.940;5.282;2022-12-08T09:14:47;4.20;99.90
27667;DHT22;15074;50.940;5.282;2022-12-08T09:17:13;4.30;99.90
27667;DHT22;15074;50.940;5.282;2022-12-08T09:19:39;4.40;99.90
27667;DHT22;15074;50.940;5.282;2022-12-08T09:22:04;4.50;99.90
27667;DHT22;15074;50.940;5.282;2022-12-08T09:24:30;4.50;99.90
27667;DHT22;15074;50.940;5.282;2022-12-08T09:26:56;4.50;99.90
27667;DHT22;15074;50.940;5.282;2022-12-08T09:29:21;4.60;99.90
27667;DHT22;15074;50.940;5.282;2022-12-08T09:31:47;4.50;99.90
27667;DHT22;15074;50.940;5.282;2022-12-08T09:34:13;4.50;99.90
27667;DHT22;15074;50.940;5.282;2022-12-08T09:36:39;4.50;99.90
27667;DHT22;15074;50.940;5.282;2022-12-08T09:39:05;4.50;99.90
27667;DHT22;15074;50.940;5.282;2022-12-08T09:41:47;4.60;99.90
27667;DHT22;15074;50.940;5.282;2022-12-08T09:44:34;4.60;99.90
27667;DHT22;15074;50.940;5.282;2022-12-08T09:47:10;4.60;99.90
27667;DHT22;15074;50.940;5.282;2022-12-08T09:50:00;4.60;99.90
27667;DHT22;15074;50.940;5.282;2022-12-08T09:52:34;4.60;99.90
27667;DHT22;15074;50.940;5.282;2022-12-08T09:55:11;4.60;99.90
27667;DHT22;15074;50.940;5.282;2022-12-08T09:57:38;4.70;99.90
27667;DHT22;15074;50.940;5.282;2022-12-08T10:00:05;4.70;99.90
27667;DHT22;15074;50.940;5.282;2022-12-08T10:02:31;4.60;99.90
27667;DHT22;15074;50.940;5.282;2022-12-08T10:04:58;4.70;99.90
27667;DHT22;15074;50.940;5.282;2022-12-08T10:12:41;4.90;99.90
27667;DHT22;15074;50.940;5.282;2022-12-08T10:18:24;4.90;99.90
27667;DHT22;15074;50.940;5.282;2022-12-08T10:20:51;5.00;99.90
27667;DHT22;15074;50.940;5.282;2022-12-08T10:26:23;4.90;99.90
27667;DHT22;15074;50.940;5.282;2022-12-08T10:28:42;4.90;99.90
27667;DHT22;15074;50.940;5.282;2022-12-08T10:31:28;4.80;99.90
27667;DHT22;15074;50.940;5.282;2022-12-08T10:33:59;4.80;99.90
27667;DHT22;15074;50.940;5.282;2022-12-08T10:36:53;4.70;99.90
27667;DHT22;15074;50.940;5.282;2022-12-08T10:39:37;4.70;99.90
27667;DHT22;15074;50.940;5.282;2022-12-08T10:47:24;4.50;99.90
27667;DHT22;15074;50.940;5.282;2022-12-08T10:52:59;4.40;99.90
27667;DHT22;15074;50.940;5.282;2022-12-08T10:55:28;4.40;99.90
27667;DHT22;15074;50.940;5.282;2022-12-08T10:57:54;4.20;99.90
27667;DHT22;15074;50.940;5.282;2022-12-08T11:00:40;4.30;99.90
27667;DHT22;15074;50.940;5.282;2022-12-08T11:03:44;4.40;99.90
27667;DHT22;15074;50.940;5.282;2022-12-08T11:06:36;4.40;99.90
27667;DHT22;15074;50.940;5.282;2022-12-08T11:11:56;4.50;99.90
27667;DHT22;15074;50.940;5.282;2022-12-08T11:14:28;4.60;99.90
27667;DHT22;15074;50.940;5.282;2022-12-08T11:17:27;4.60;99.90
27667;DHT22;15074;50.940;5.282;2022-12-08T11:22:43;4.70;99.90
27667;DHT22;15074;50.940;5.282;2022-12-08T11:25:27;4.70;99.90
27667;DHT22;15074;50.940;5.282;2022-12-08T11:27:59;4.80;99.90
27667;DHT22;15074;50.940;5.282;2022-12-08T11:30:31;4.80;99.90
27667;DHT22;15074;50.940;5.282;2022-12-08T11:33:25;4.80;99.90
27667;DHT22;15074;50.940;5.282;2022-12-08T11:35:56;4.90;99.90
27667;DHT22;15074;50.940;5.282;2022-12-08T11:38:25;4.90;99.90
27667;DHT22;15074;50.940;5.282;2022-12-08T11:40:56;5.00;99.90
27667;DHT22;15074;50.940;5.282;2022-12-08T11:43:30;5.10;99.90
27667;DHT22;15074;50.940;5.282;2022-12-08T11:46:02;5.10;99.90
27667;DHT22;15074;50.940;5.282;2022-12-08T11:48:30;5.20;99.90
27667;DHT22;15074;50.940;5.282;2022-12-08T11:56:49;5.80;99.90
27667;DHT22;15074;50.940;5.282;2022-12-08T12:01:51;6.50;99.90
27667;DHT22;15074;50.940;5.282;2022-12-08T12:07:43;6.40;99.90
27667;DHT22;15074;50.940;5.282;2022-12-08T12:17:56;7.90;99.90
27667;DHT22;15074;50.940;5.282;2022-12-08T12:20:34;7.60;99.90
27667;DHT22;15074;50.940;5.282;2022-12-08T12:23:05;7.20;99.90
27667;DHT22;15074;50.940;5.282;2022-12-08T12:25:34;7.10;99.90
27667;DHT22;15074;50.940;5.282;2022-12-08T12:28:04;6.90;99.90
27667;DHT22;15074;50.940;5.282;2022-12-08T12:33:16;6.80;99.90
27667;DHT22;15074;50.940;5.282;2022-12-08T12:35:44;6.80;99.90
27667;DHT22;15074;50.940;5.282;2022-12-08T12:38:42;6.80;99.90
27667;DHT22;15074;50.940;5.282;2022-12-08T12:41:28;6.80;99.90
27667;DHT22;15074;50.940;5.282;2022-12-08T12:44:35;6.60;99.90
27667;DHT22;15074;50.940;5.282;2022-12-08T12:47:03;6.40;99.90
27667;DHT22;15074;50.940;5.282;2022-12-08T12:57:20;6.00;99.90
27667;DHT22;15074;50.940;5.282;2022-12-08T13:07:26;6.00;99.90
27667;DHT22;15074;50.940;5.282;2022-12-08T13:09:57;6.00;99.90
27667;DHT22;15074;50.940;5.282;2022-12-08T13:12:24;6.00;99.90
27667;DHT22;15074;50.940;5.282;2022-12-08T13:14:57;5.90;99.90
27667;DHT22;15074;50.940;5.282;2022-12-08T13:17:30;5.90;99.90
27667;DHT22;15074;50.940;5.282;2022-12-08T13:20:00;5.90;99.90
27667;DHT22;15074;50.940;5.282;2022-12-08T13:30:47;5.90;99.90
27667;DHT22;15074;50.940;5.282;2022-12-08T13:33:29;5.80;99.90
27667;DHT22;15074;50.940;5.282;2022-12-08T13:36:04;5.80;99.90
27667;DHT22;15074;50.940;5.282;2022-12-08T13:38:36;5.70;99.90
27667;DHT22;15074;50.940;5.282;2022-12-08T13:41:10;5.70;99.90
27667;DHT22;15074;50.940;5.282;2022-12-08T13:44:03;5.70;99.90
27667;DHT22;15074;50.940;5.282;2022-12-08T13:46:42;5.70;99.90
27667;DHT22;15074;50.940;5.282;2022-12-08T13:49:14;5.70;99.90
27667;DHT22;15074;50.940;5.282;2022-12-08T13:51:42;5.70;99.90
27667;DHT22;15074;50.940;5.282;2022-12-08T13:54:17;5.60;99.90
27667;DHT22;15074;50.940;5.282;2022-12-08T13:56:45;5.60;99.90
27667;DHT22;15074;50.940;5.282;2022-12-08T14:01:46;5.60;99.90
27667;DHT22;15074;50.940;5.282;2022-12-08T14:04:18;5.60;99.90
27667;DHT22;15074;50.940;5.282;2022-12-08T14:06:57;5.60;99.90
27667;DHT22;15074;50.940;5.282;2022-12-08T14:09:28;5.60;99.90
27667;DHT22;15074;50.940;5.282;2022-12-08T14:12:12;5.50;99.90
27667;DHT22;15074;50.940;5.282;2022-12-08T14:14:42;5.50;99.90
27667;DHT22;15074;50.940;5.282;2022-12-08T14:17:15;5.50;99.90
27667;DHT22;15074;50.940;5.282;2022-12-08T14:22:35;5.50;99.90
27667;DHT22;15074;50.940;5.282;2022-12-08T14:25:02;5.40;99.90
27667;DHT22;15074;50.940;5.282;2022-12-08T14:27:33;5.30;99.90
27667;DHT22;15074;50.940;5.282;2022-12-08T14:30:01;5.40;99.90
27667;DHT22;15074;50.940;5.282;2022-12-08T14:37:37;5.40;99.90
27667;DHT22;15074;50.940;5.282;2022-12-08T14:42:45;5.40;99.90
27667;DHT22;15074;50.940;5.282;2022-12-08T14:45:14;5.20;99.90
27667;DHT22;15074;50.940;5.282;2022-12-08T14:47:40;5.20;99.90
27667;DHT22;15074;50.940;5.282;2022-12-08T14:53:00;5.00;99.90
27667;DHT22;15074;50.940;5.282;2022-12-08T14:55:32;5.00;99.90
27667;DHT22;15074;50.940;5.282;2022-12-08T14:57:58;5.00;99.90
27667;DHT22;15074;50.940;5.282;2022-12-08T15:00:24;4.90;99.90
27667;DHT22;15074;50.940;5.282;2022-12-08T15:02:50;4.90;99.90
27667;DHT22;15074;50.940;5.282;2022-12-08T15:05:19;4.90;99.90
27667;DHT22;15074;50.940;5.282;2022-12-08T15:07:50;4.90;99.90
27667;DHT22;15074;50.940;5.282;2022-12-08T15:20:52;4.60;99.90
27667;DHT22;15074;50.940;5.282;2022-12-08T15:23:49;4.60;99.90
27667;DHT22;15074;50.940;5.282;2022-12-08T15:28:45;4.70;99.90
27667;DHT22;15074;50.940;5.282;2022-12-08T15:31:12;4.60;99.90
27667;DHT22;15074;50.940;5.282;2022-12-08T15:33:38;4.60;99.90
27667;DHT22;15074;50.940;5.282;2022-12-08T15:36:04;4.60;99.90
27667;DHT22;15074;50.940;5.282;2022-12-08T15:38:30;4.50;99.90
27667;DHT22;15074;50.940;5.282;2022-12-08T15:40:56;4.40;99.90
27667;DHT22;15074;50.940;5.282;2022-12-08T15:43:25;4.40;99.90
27667;DHT22;15074;50.940;5.282;2022-12-08T15:45:51;4.40;99.90
27667;DHT22;15074;50.940;5.282;2022-12-08T15:48:21;4.20;99.90
27667;DHT22;15074;50.940;5.282;2022-12-08T15:50:48;4.10;99.90
27667;DHT22;15074;50.940;5.282;2022-12-08T15:53:14;4.10;99.90
27667;DHT22;15074;50.940;5.282;2022-12-08T15:55:40;4.10;99.90
27667;DHT22;15074;50.940;5.282;2022-12-08T15:58:07;4.10;99.90
27667;DHT22;15074;50.940;5.282;2022-12-08T16:00:36;4.00;99.90
27667;DHT22;15074;50.940;5.282;2022-12-08T16:03:02;4.00;99.90
27667;DHT22;15074;50.940;5.282;2022-12-08T16:05:29;3.90;99.90
27667;DHT22;15074;50.940;5.282;2022-12-08T16:07:56;3.90;99.90
27667;DHT22;15074;50.940;5.282;2022-12-08T16:10:24;3.80;99.90
27667;DHT22;15074;50.940;5.282;2022-12-08T16:12:51;3.80;99.90
27667;DHT22;15074;50.940;5.282;2022-12-08T16:15:38;3.70;99.90
27667;DHT22;15074;50.940;5.282;2022-12-08T16:18:05;3.70;99.90
27667;DHT22;15074;50.940;5.282;2022-12-08T16:20:31;3.70;99.90
27667;DHT22;15074;50.940;5.282;2022-12-08T16:22:57;3.70;99.90
27667;DHT22;15074;50.940;5.282;2022-12-08T16:25:23;3.60;99.90
27667;DHT22;15074;50.940;5.282;2022-12-08T16:27:52;3.60;99.90
27667;DHT22;15074;50.940;5.282;2022-12-08T16:30:19;3.50;99.90
27667;DHT22;15074;50.940;5.282;2022-12-08T16:32:45;3.50;99.90
27667;DHT22;15074;50.940;5.282;2022-12-08T16:35:11;3.50;99.90
27667;DHT22;15074;50.940;5.282;2022-12-08T16:37:37;3.50;99.90
27667;DHT22;15074;50.940;5.282;2022-12-08T16:40:03;3.60;99.90
27667;DHT22;15074;50.940;5.282;2022-12-08T16:42:31;3.60;99.90
27667;DHT22;15074;50.940;5.282;2022-12-08T16:47:47;3.70;99.90
27667;DHT22;15074;50.940;5.282;2022-12-08T16:50:21;3.70;99.90
27667;DHT22;15074;50.940;5.282;2022-12-08T16:52:48;3.60;99.90
27667;DHT22;15074;50.940;5.282;2022-12-08T16:55:18;3.60;99.90
27667;DHT22;15074;50.940;5.282;2022-12-08T16:57:44;3.70;99.90
27667;DHT22;15074;50.940;5.282;2022-12-08T17:00:14;3.80;99.90
27667;DHT22;15074;50.940;5.282;2022-12-08T17:02:40;3.80;99.90
27667;DHT22;15074;50.940;5.282;2022-12-08T17:05:06;3.80;99.90
27667;DHT22;15074;50.940;5.282;2022-12-08T17:07:33;3.90;99.90
27667;DHT22;15074;50.940;5.282;2022-12-08T17:10:04;3.90;99.90
27667;DHT22;15074;50.940;5.282;2022-12-08T17:12:31;3.80;99.90
27667;DHT22;15074;50.940;5.282;2022-12-08T17:14:56;3.70;99.90
27667;DHT22;15074;50.940;5.282;2022-12-08T17:17:22;3.60;99.90
27667;DHT22;15074;50.940;5.282;2022-12-08T17:19:48;3.60;99.90
27667;DHT22;15074;50.940;5.282;2022-12-08T17:22:13;3.50;99.90
27667;DHT22;15074;50.940;5.282;2022-12-08T17:24:39;3.40;99.90
27667;DHT22;15074;50.940;5.282;2022-12-08T17:27:04;3.30;99.90
27667;DHT22;15074;50.940;5.282;2022-12-08T17:29:31;3.10;99.90
27667;DHT22;15074;50.940;5.282;2022-12-08T17:31:57;3.10;99.90
27667;DHT22;15074;50.940;5.282;2022-12-08T17:34:31;3.00;99.90
27667;DHT22;15074;50.940;5.282;2022-12-08T17:36:56;3.10;99.90
27667;DHT22;15074;50.940;5.282;2022-12-08T17:39:23;3.10;99.90
27667;DHT22;15074;50.940;5.282;2022-12-08T17:41:49;3.10;99.90
27667;DHT22;15074;50.940;5.282;2022-12-08T17:44:17;3.10;99.90
27667;DHT22;15074;50.940;5.282;2022-12-08T17:46:43;3.20;99.90
27667;DHT22;15074;50.940;5.282;2022-12-08T17:49:20;3.20;99.90
27667;DHT22;15074;50.940;5.282;2022-12-08T17:51:48;3.20;99.90
27667;DHT22;15074;50.940;5.282;2022-12-08T17:54:15;3.20;99.90
27667;DHT22;15074;50.940;5.282;2022-12-08T17:56:41;3.10;99.90
27667;DHT22;15074;50.940;5.282;2022-12-08T17:59:08;3.10;99.90
27667;DHT22;15074;50.940;5.282;2022-12-08T18:01:34;3.10;99.90
27667;DHT22;15074;50.940;5.282;2022-12-08T18:04:00;3.20;99.90
27667;DHT22;15074;50.940;5.282;2022-12-08T18:06:28;3.20;99.90
27667;DHT22;15074;50.940;5.282;2022-12-08T18:08:54;3.10;99.90
27667;DHT22;15074;50.940;5.282;2022-12-08T18:11:20;3.10;99.90
27667;DHT22;15074;50.940;5.282;2022-12-08T18:23:59;2.90;99.90
27667;DHT22;15074;50.940;5.282;2022-12-08T18:26:25;3.00;99.90
27667;DHT22;15074;50.940;5.282;2022-12-08T18:35:44;3.10;99.90
27667;DHT22;15074;50.940;5.282;2022-12-08T18:38:09;3.20;99.90
27667;DHT22;15074;50.940;5.282;2022-12-08T18:40:35;3.10;99.90
27667;DHT22;15074;50.940;5.282;2022-12-08T18:43:01;3.20;99.90
27667;DHT22;15074;50.940;5.282;2022-12-08T18:45:26;3.10;99.90
27667;DHT22;15074;50.940;5.282;2022-12-08T18:47:52;3.10;99.90
27667;DHT22;15074;50.940;5.282;2022-12-08T18:50:18;3.20;99.90
27667;DHT22;15074;50.940;5.282;2022-12-08T18:52:44;3.20;99.90
27667;DHT22;15074;50.940;5.282;2022-12-08T18:55:10;3.20;99.90
27667;DHT22;15074;50.940;5.282;2022-12-08T18:57:37;3.30;99.90
27667;DHT22;15074;50.940;5.282;2022-12-08T19:00:05;3.30;99.90
27667;DHT22;15074;50.940;5.282;2022-12-08T19:02:31;3.30;99.90
27667;DHT22;15074;50.940;5.282;2022-12-08T19:04:57;3.30;99.90
27667;DHT22;15074;50.940;5.282;2022-12-08T19:07:29;3.30;99.90
27667;DHT22;15074;50.940;5.282;2022-12-08T19:13:16;3.30;99.90
27667;DHT22;15074;50.940;5.282;2022-12-08T19:19:29;3.30;99.90
27667;DHT22;15074;50.940;5.282;2022-12-08T19:25:26;3.30;99.90
27667;DHT22;15074;50.940;5.282;2022-12-08T19:27:51;3.20;99.90
27667;DHT22;15074;50.940;5.282;2022-12-08T19:30:17;3.10;99.90
27667;DHT22;15074;50.940;5.282;2022-12-08T19:33:07;3.00;99.90
27667;DHT22;15074;50.940;5.282;2022-12-08T19:35:34;2.90;99.90
27667;DHT22;15074;50.940;5.282;2022-12-08T19:38:00;2.80;99.90
27667;DHT22;15074;50.940;5.282;2022-12-08T19:40:29;2.80;99.90
27667;DHT22;15074;50.940;5.282;2022-12-08T19:43:34;2.60;99.90
27667;DHT22;15074;50.940;5.282;2022-12-08T19:46:18;2.50;99.90
27667;DHT22;15074;50.940;5.282;2022-12-08T19:48:56;2.50;99.90
27667;DHT22;15074;50.940;5.282;2022-12-08T19:51:22;2.40;99.90
27667;DHT22;15074;50.940;5.282;2022-12-08T19:53:48;2.30;99.90
27667;DHT22;15074;50.940;5.282;2022-12-08T19:56:14;2.30;99.90
27667;DHT22;15074;50.940;5.282;2022-12-08T20:02:22;2.30;99.90
27667;DHT22;15074;50.940;5.282;2022-12-08T20:04:47;2.10;99.90
27667;DHT22;15074;50.940;5.282;2022-12-08T20:07:13;2.00;99.90
27667;DHT22;15074;50.940;5.282;2022-12-08T20:09:38;2.00;99.90
27667;DHT22;15074;50.940;5.282;2022-12-08T20:12:10;2.00;99.90
27667;DHT22;15074;50.940;5.282;2022-12-08T20:14:35;1.90;99.90
27667;DHT22;15074;50.940;5.282;2022-12-08T20:17:01;1.80;99.90
27667;DHT22;15074;50.940;5.282;2022-12-08T20:19:27;1.80;99.90
27667;DHT22;15074;50.940;5.282;2022-12-08T20:28:45;1.80;99.90
27667;DHT22;15074;50.940;5.282;2022-12-08T20:31:31;1.70;99.90
27667;DHT22;15074;50.940;5.282;2022-12-08T20:33:57;1.70;99.90
27667;DHT22;15074;50.940;5.282;2022-12-08T20:36:23;1.70;99.90
27667;DHT22;15074;50.940;5.282;2022-12-08T20:38:51;1.60;99.90
27667;DHT22;15074;50.940;5.282;2022-12-08T20:41:17;1.60;99.90
27667;DHT22;15074;50.940;5.282;2022-12-08T20:44:09;1.40;99.90
27667;DHT22;15074;50.940;5.282;2022-12-08T20:46:35;1.40;99.90
27667;DHT22;15074;50.940;5.282;2022-12-08T20:49:02;1.30;99.90
27667;DHT22;15074;50.940;5.282;2022-12-08T20:51:29;1.20;99.90
27667;DHT22;15074;50.940;5.282;2022-12-08T20:53:56;1.20;99.90
27667;DHT22;15074;50.940;5.282;2022-12-08T21:07:06;1.00;99.90
27667;DHT22;15074;50.940;5.282;2022-12-08T21:09:34;1.00;99.90
27667;DHT22;15074;50.940;5.282;2022-12-08T21:12:00;0.90;99.90
27667;DHT22;15074;50.940;5.282;2022-12-08T21:17:40;0.70;99.90
27667;DHT22;15074;50.940;5.282;2022-12-08T21:20:06;0.70;99.90
27667;DHT22;15074;50.940;5.282;2022-12-08T21:22:32;0.70;99.90
27667;DHT22;15074;50.940;5.282;2022-12-08T21:38:49;0.70;99.90
27667;DHT22;15074;50.940;5.282;2022-12-08T21:45:09;0.70;99.90
27667;DHT22;15074;50.940;5.282;2022-12-08T21:47:35;0.60;99.90
